Time;durP1;ratioP1;P1;durP2;ratioP2;P2;SDS_P1;SDS_P2;PMS_P1;PMS_P2;Temp;Humidity;BMP_temperature;BMP_pressure;BME280_temperature;BME280_humidity;BME280_pressure;Samples;Min_cycle;Max_cycle;Signal;HPM_P1;HPM_P2
2021/12/07 00:00:25;;;;;;;7.15;4.88;;;3.20;99.90;;;;;;6068983;23;20010;-82
2021/12/07 00:02:51;;;;;;;11.82;6.22;;;3.20;99.90;;;;;;6094384;23;20469;-83
2021/12/07 00:05:18;;;;;;;10.45;6.65;;;3.10;99.90;;;;;;6069490;23;20002;-84
2021/12/07 00:07:44;;;;;;;9.75;5.38;;;3.10;99.90;;;;;;6094999;23;19998;-83
2021/12/07 00:10:11;;;;;;;6.90;4.72;;;3.00;99.90;;;;;;6095522;23;20341;-83
2021/12/07 00:12:39;;;;;;;7.80;5.25;;;3.00;99.90;;;;;;6094917;23;20464;-83
2021/12/07 00:15:07;;;;;;;9.52;5.50;;;3.00;99.90;;;;;;6094893;23;20323;-82
2021/12/07 00:17:33;;;;;;;10.35;5.30;;;3.00;99.90;;;;;;6069350;23;20155;-82
2021/12/07 00:20:00;;;;;;;10.82;5.40;;;3.00;99.90;;;;;;6095124;23;20003;-83
2021/12/07 00:22:27;;;;;;;6.20;4.80;;;3.00;99.90;;;;;;6094919;23;20010;-82
2021/12/07 00:24:53;;;;;;;7.93;5.82;;;3.00;99.90;;;;;;6095106;23;20053;-83
2021/12/07 00:27:18;;;;;;;10.43;5.57;;;3.00;99.90;;;;;;6094842;23;20006;-82
2021/12/07 00:29:44;;;;;;;9.07;5.32;;;3.00;99.90;;;;;;6094822;23;20073;-84
2021/12/07 00:33:08;;;;;;;9.15;4.90;;;3.00;99.90;;;;;;6095252;23;20446;-84
2021/12/07 00:37:56;;;;;;;10.88;5.05;;;3.10;99.90;;;;;;6095017;23;20013;-82
2021/12/07 00:40:23;;;;;;;8.02;4.70;;;3.20;99.90;;;;;;6069299;23;20480;-83
2021/12/07 00:42:49;;;;;;;6.88;4.35;;;3.20;99.90;;;;;;6094776;23;20014;-83
2021/12/07 00:45:18;;;;;;;8.77;4.68;;;3.20;99.90;;;;;;6094713;23;20137;-84
2021/12/07 00:47:44;;;;;;;5.75;4.30;;;3.20;99.90;;;;;;6094889;23;20010;-83
2021/12/07 00:50:11;;;;;;;7.28;4.35;;;3.20;99.90;;;;;;6094981;23;19995;-81
2021/12/07 00:52:37;;;;;;;6.82;3.78;;;3.20;99.90;;;;;;6094778;23;19998;-83
2021/12/07 00:55:08;;;;;;;9.88;4.50;;;3.20;99.90;;;;;;6094740;23;20013;-84
2021/12/07 00:57:34;;;;;;;5.05;3.72;;;3.20;99.90;;;;;;6095346;23;20002;-84
2021/12/07 01:00:02;;;;;;;4.80;3.67;;;3.20;99.90;;;;;;6069422;23;20014;-82
2021/12/07 01:02:27;;;;;;;6.07;3.60;;;3.10;99.90;;;;;;6094571;23;20057;-83
2021/12/07 01:04:58;;;;;;;8.38;3.50;;;3.20;99.90;;;;;;6094680;23;20006;-82
2021/12/07 01:07:50;;;;;;;5.00;3.40;;;3.20;99.90;;;;;;6094921;23;20006;-83
2021/12/07 01:26:36;;;;;;;7.60;4.80;;;2.90;99.90;;;;;;6096534;23;20009;-83
2021/12/07 01:29:02;;;;;;;8.90;4.07;;;2.80;99.90;;;;;;6070682;23;20006;-83
2021/12/07 01:31:47;;;;;;;9.00;3.53;;;2.70;99.90;;;;;;6070769;23;20010;-83
2021/12/07 01:52:54;;;;;;;7.68;3.88;;;2.70;99.90;;;;;;6096663;23;20006;-82
2021/12/07 02:00:57;;;;;;;4.03;2.65;;;2.70;99.90;;;;;;6041950;23;20010;-83
2021/12/07 02:03:24;;;;;;;3.30;2.60;;;2.80;99.90;;;;;;6095642;23;20010;-83
2021/12/07 02:05:50;;;;;;;3.70;2.33;;;3.10;99.90;;;;;;6096039;23;20446;-83
2021/12/07 02:08:16;;;;;;;4.95;2.90;;;3.30;99.90;;;;;;6095964;23;20006;-82
2021/12/07 02:10:42;;;;;;;4.35;2.75;;;3.20;99.90;;;;;;6095474;23;20009;-80
2021/12/07 02:15:49;;;;;;;3.80;2.60;;;3.10;99.90;;;;;;6095876;23;20301;-81
2021/12/07 02:18:15;;;;;;;3.45;2.25;;;3.10;99.90;;;;;;6069999;23;20061;-84
2021/12/07 02:20:46;;;;;;;3.95;2.75;;;3.10;99.90;;;;;;6095498;23;20598;-82
2021/12/07 02:23:12;;;;;;;4.82;2.72;;;3.30;99.90;;;;;;6095591;23;20011;-79
2021/12/07 02:25:38;;;;;;;2.95;2.35;;;3.30;99.90;;;;;;6095430;23;20009;-81
2021/12/07 02:28:11;;;;;;;3.15;2.40;;;3.30;99.90;;;;;;6095761;23;20390;-80
2021/12/07 02:30:37;;;;;;;2.95;2.17;;;3.40;99.90;;;;;;6070240;23;20342;-81
2021/12/07 02:33:03;;;;;;;4.15;2.40;;;3.40;99.90;;;;;;6095292;23;20002;-81
2021/12/07 02:35:28;;;;;;;4.63;2.35;;;3.40;99.90;;;;;;6095506;23;20010;-81
2021/12/07 02:37:56;;;;;;;5.65;2.67;;;3.20;99.90;;;;;;6070066;23;20006;-81
2021/12/07 02:40:22;;;;;;;5.47;2.42;;;3.10;99.90;;;;;;6095635;23;20089;-81
2021/12/07 02:42:49;;;;;;;4.55;2.22;;;3.00;99.90;;;;;;6095002;23;20045;-80
2021/12/07 02:45:17;;;;;;;4.35;2.50;;;2.90;99.90;;;;;;6069993;23;20026;-81
2021/12/07 02:47:44;;;;;;;5.80;2.17;;;2.80;99.90;;;;;;6070103;23;20007;-80
2021/12/07 02:50:11;;;;;;;2.83;2.08;;;2.80;99.90;;;;;;6070050;23;20061;-79
2021/12/07 02:52:36;;;;;;;4.43;1.95;;;2.80;99.90;;;;;;6095305;23;20007;-82
2021/12/07 02:55:04;;;;;;;2.83;1.88;;;2.90;99.90;;;;;;6095178;23;20013;-83
2021/12/07 02:57:30;;;;;;;2.90;1.85;;;3.10;99.90;;;;;;6095187;23;20053;-82
2021/12/07 03:00:06;;;;;;;2.53;1.85;;;3.20;99.90;;;;;;6095434;23;20071;-84
2021/12/07 03:02:38;;;;;;;2.03;1.80;;;3.40;99.90;;;;;;6095185;23;20443;-82
2021/12/07 03:05:15;;;;;;;3.10;2.07;;;3.60;99.90;;;;;;6095204;23;19998;-82
2021/12/07 03:26:32;;;;;;;5.18;2.22;;;3.90;99.90;;;;;;6095133;23;20093;-79
2021/12/07 03:29:00;;;;;;;5.20;2.28;;;3.90;99.90;;;;;;6069235;23;20034;-80
2021/12/07 03:31:26;;;;;;;4.78;2.33;;;3.70;99.90;;;;;;6094920;23;20474;-80
2021/12/07 03:33:54;;;;;;;3.30;2.50;;;3.70;99.90;;;;;;6094591;23;20013;-80
2021/12/07 03:36:20;;;;;;;4.13;2.80;;;3.60;99.90;;;;;;6069332;23;20085;-81
2021/12/07 03:38:48;;;;;;;4.55;2.25;;;3.50;99.90;;;;;;6069501;23;20026;-81
2021/12/07 03:41:14;;;;;;;3.05;2.65;;;3.40;99.90;;;;;;6094808;23;20002;-83
2021/12/07 03:43:41;;;;;;;3.90;2.58;;;3.40;99.90;;;;;;6094764;23;20029;-82
2021/12/07 03:46:08;;;;;;;3.88;3.00;;;3.40;99.90;;;;;;6069283;23;19998;-82
2021/12/07 03:48:35;;;;;;;2.90;2.60;;;3.40;99.90;;;;;;6069190;23;20041;-81
2021/12/07 03:51:01;;;;;;;5.72;2.60;;;3.40;99.90;;;;;;6094352;23;19998;-81
2021/12/07 03:53:30;;;;;;;6.50;2.95;;;3.40;99.90;;;;;;6094644;23;20037;-80
2021/12/07 03:55:57;;;;;;;7.43;3.42;;;3.40;99.90;;;;;;6094378;23;20073;-80
2021/12/07 03:58:24;;;;;;;5.40;2.80;;;3.50;99.90;;;;;;6094812;23;20006;-81
2021/12/07 04:00:49;;;;;;;3.65;3.05;;;3.40;99.90;;;;;;6069185;23;20062;-81
2021/12/07 04:03:18;;;;;;;4.22;2.97;;;3.40;99.90;;;;;;6094724;23;20006;-82
2021/12/07 04:05:48;;;;;;;4.15;3.00;;;3.30;99.90;;;;;;6094712;23;20041;-81
2021/12/07 04:08:20;;;;;;;5.78;3.13;;;3.30;99.90;;;;;;6094701;23;20085;-81
2021/12/07 04:10:46;;;;;;;4.60;3.22;;;3.30;99.90;;;;;;6068992;23;20009;-81
2021/12/07 04:13:13;;;;;;;4.50;2.50;;;3.30;99.90;;;;;;6093984;23;20074;-80
2021/12/07 04:15:39;;;;;;;5.55;3.53;;;3.30;99.90;;;;;;6094494;23;20006;-82
2021/12/07 04:18:05;;;;;;;7.13;3.35;;;3.30;99.90;;;;;;6094708;23;20005;-82
2021/12/07 04:20:31;;;;;;;5.07;2.97;;;3.30;99.90;;;;;;6094501;23;20015;-80
2021/12/07 04:22:57;;;;;;;3.97;3.00;;;3.30;99.90;;;;;;6069194;23;20014;-82
2021/12/07 04:25:23;;;;;;;4.28;3.10;;;3.30;99.90;;;;;;6068258;23;19999;-80
2021/12/07 04:27:51;;;;;;;4.97;3.35;;;3.30;99.90;;;;;;6095297;23;20003;-80
2021/12/07 04:30:32;;;;;;;5.50;3.13;;;3.40;99.90;;;;;;6094565;23;20007;-80
2021/12/07 04:32:59;;;;;;;4.47;3.20;;;3.40;99.90;;;;;;6094798;23;20003;-81
2021/12/07 04:35:26;;;;;;;5.50;2.75;;;3.40;99.90;;;;;;6069815;23;20323;-82
2021/12/07 04:37:52;;;;;;;3.50;2.80;;;3.50;99.90;;;;;;6095489;23;20061;-81
2021/12/07 04:40:23;;;;;;;4.10;2.97;;;3.40;99.90;;;;;;6095435;23;20010;-81
2021/12/07 04:42:49;;;;;;;3.58;2.70;;;3.50;99.90;;;;;;6069660;23;20358;-80
2021/12/07 04:45:35;;;;;;;6.78;2.50;;;3.50;99.90;;;;;;6094948;23;20033;-81
2021/12/07 04:58:43;;;;;;;5.13;2.60;;;3.30;99.90;;;;;;6097434;23;20029;-82
2021/12/07 05:01:11;;;;;;;8.63;2.50;;;3.30;99.90;;;;;;6096375;23;20050;-79
2021/12/07 05:03:39;;;;;;;3.25;2.40;;;3.30;99.90;;;;;;6096599;23;20110;-81
2021/12/07 05:06:07;;;;;;;4.47;2.50;;;3.30;99.90;;;;;;6071465;23;20155;-80
2021/12/07 05:08:40;;;;;;;4.45;1.90;;;3.30;99.90;;;;;;6071368;23;20007;-81
2021/12/07 05:13:39;;;;;;;3.28;2.22;;;3.60;99.90;;;;;;6098364;23;20014;-80
2021/12/07 05:16:27;;;;;;;2.40;1.98;;;3.70;99.90;;;;;;6071206;23;20030;-79
2021/12/07 05:24:08;;;;;;;5.60;2.10;;;3.80;99.90;;;;;;6096839;23;20066;-81
2021/12/07 05:40:25;;;;;;;3.40;2.38;;;3.00;99.90;;;;;;6098926;23;20033;-80
2021/12/07 05:42:51;;;;;;;2.70;2.15;;;2.90;99.90;;;;;;6070751;23;20354;-82
2021/12/07 05:45:31;;;;;;;8.40;2.47;;;2.90;99.90;;;;;;6096404;23;20006;-81
2021/12/07 05:47:58;;;;;;;4.25;2.45;;;2.80;99.90;;;;;;6096567;23;20002;-83
2021/12/07 05:50:27;;;;;;;4.18;2.45;;;2.80;99.90;;;;;;6070642;23;20010;-81
2021/12/07 05:52:53;;;;;;;3.67;2.33;;;2.80;99.90;;;;;;6096468;23;20002;-82
2021/12/07 05:55:19;;;;;;;3.75;2.35;;;2.70;99.90;;;;;;6096219;23;20338;-81
2021/12/07 05:57:45;;;;;;;5.82;2.50;;;2.70;99.90;;;;;;6095943;23;20022;-81
2021/12/07 06:00:22;;;;;;;3.05;2.50;;;2.70;99.90;;;;;;6096116;23;20033;-80
2021/12/07 06:02:48;;;;;;;3.92;2.75;;;2.70;99.90;;;;;;6068581;23;20022;-81
2021/12/07 06:05:14;;;;;;;6.18;2.65;;;2.70;99.90;;;;;;6070282;23;20097;-81
2021/12/07 06:07:40;;;;;;;3.90;2.90;;;2.70;99.90;;;;;;6096024;23;20003;-80
2021/12/07 06:10:06;;;;;;;4.25;2.60;;;2.60;99.90;;;;;;6070115;23;20005;-81
2021/12/07 06:12:32;;;;;;;3.47;3.17;;;2.60;99.90;;;;;;6070351;23;20006;-81
2021/12/07 06:14:58;;;;;;;5.38;3.25;;;2.70;99.90;;;;;;6095757;23;20005;-81
2021/12/07 06:17:23;;;;;;;4.43;3.17;;;2.70;99.90;;;;;;6094977;23;20103;-82
2021/12/07 06:19:49;;;;;;;4.50;2.95;;;2.70;99.90;;;;;;6093988;23;20006;-81
2021/12/07 06:22:15;;;;;;;3.55;2.92;;;2.70;99.90;;;;;;6094835;23;20011;-81
2021/12/07 06:24:41;;;;;;;4.78;3.05;;;2.80;99.90;;;;;;6069974;23;20316;-82
2021/12/07 06:27:07;;;;;;;3.72;2.60;;;3.00;99.90;;;;;;6070202;23;20013;-82
2021/12/07 06:29:35;;;;;;;4.22;2.83;;;3.10;99.90;;;;;;6095720;23;19998;-81
2021/12/07 06:32:01;;;;;;;4.50;2.80;;;3.10;99.90;;;;;;6095394;23;20006;-81
2021/12/07 06:34:27;;;;;;;4.32;2.88;;;3.10;99.90;;;;;;6095306;23;19999;-81
2021/12/07 06:36:53;;;;;;;4.78;3.70;;;3.00;99.90;;;;;;6067705;23;20206;-80
2021/12/07 06:39:20;;;;;;;4.55;3.05;;;2.90;99.90;;;;;;6093259;23;20005;-81
2021/12/07 06:41:46;;;;;;;6.18;4.15;;;2.90;99.90;;;;;;6093010;23;20021;-80
2021/12/07 06:44:12;;;;;;;10.48;4.35;;;2.90;99.90;;;;;;6093279;23;20389;-82
2021/12/07 06:46:37;;;;;;;7.32;4.60;;;2.90;99.90;;;;;;6093699;23;20469;-81
2021/12/07 06:49:03;;;;;;;3.75;2.85;;;2.90;99.90;;;;;;6093650;23;20380;-81
2021/12/07 06:51:29;;;;;;;3.97;2.83;;;3.00;99.90;;;;;;6095057;23;20002;-81
2021/12/07 06:53:56;;;;;;;4.85;2.83;;;3.00;99.90;;;;;;6095521;23;20022;-81
2021/12/07 06:56:22;;;;;;;3.85;2.72;;;3.00;99.90;;;;;;6096258;23;20006;-83
2021/12/07 06:58:47;;;;;;;3.33;2.25;;;3.00;99.90;;;;;;6070048;23;20472;-82
2021/12/07 07:01:14;;;;;;;3.10;2.60;;;3.20;99.90;;;;;;6095188;23;20002;-82
2021/12/07 07:03:41;;;;;;;2.33;1.92;;;3.30;99.90;;;;;;6095519;23;20034;-82
2021/12/07 07:06:07;;;;;;;4.53;2.13;;;3.40;99.90;;;;;;6094987;23;20481;-80
2021/12/07 07:08:33;;;;;;;3.60;2.00;;;3.60;99.90;;;;;;6069530;23;20006;-80
2021/12/07 07:10:59;;;;;;;5.65;2.50;;;3.70;99.90;;;;;;6070053;23;20498;-85
2021/12/07 07:13:25;;;;;;;6.03;3.22;;;3.90;99.90;;;;;;6072019;23;20018;-83
2021/12/07 07:15:51;;;;;;;8.20;2.72;;;4.00;99.90;;;;;;6071681;23;20145;-83
2021/12/07 07:18:16;;;;;;;5.97;2.50;;;4.00;99.90;;;;;;6070593;23;20002;-82
2021/12/07 07:20:42;;;;;;;8.10;2.92;;;4.10;99.90;;;;;;6070695;23;20006;-83
2021/12/07 07:23:08;;;;;;;6.15;2.78;;;4.10;99.90;;;;;;6071567;23;20014;-84
2021/12/07 07:25:35;;;;;;;3.80;2.35;;;4.20;99.90;;;;;;6094810;23;20029;-88
2021/12/07 07:28:01;;;;;;;4.05;2.33;;;4.40;99.90;;;;;;6045431;23;20113;-82
2021/12/07 07:30:27;;;;;;;5.53;2.50;;;4.50;99.90;;;;;;6095269;23;20022;-85
2021/12/07 07:32:53;;;;;;;4.70;2.33;;;4.60;99.90;;;;;;6069845;23;20006;-83
2021/12/07 07:35:19;;;;;;;7.43;2.88;;;4.70;99.90;;;;;;6094637;23;20009;-82
2021/12/07 07:37:46;;;;;;;4.82;2.60;;;4.80;99.90;;;;;;6094352;23;20027;-82
2021/12/07 07:40:16;;;;;;;8.35;2.40;;;5.00;99.90;;;;;;6094350;23;20094;-83
2021/12/07 07:42:42;;;;;;;3.35;2.50;;;5.00;99.90;;;;;;6094473;23;20057;-84
2021/12/07 07:45:09;;;;;;;3.30;2.55;;;5.10;99.90;;;;;;6094711;23;20024;-83
2021/12/07 07:47:36;;;;;;;4.00;2.50;;;5.20;99.90;;;;;;6094842;23;20010;-82
2021/12/07 07:50:03;;;;;;;3.22;2.42;;;5.30;99.90;;;;;;6069648;23;20010;-84
2021/12/07 07:52:29;;;;;;;4.25;2.25;;;5.40;98.90;;;;;;6094300;23;20007;-83
2021/12/07 07:54:55;;;;;;;3.30;2.22;;;5.50;99.00;;;;;;6068562;23;20020;-83
2021/12/07 07:57:21;;;;;;;4.22;2.35;;;5.60;98.80;;;;;;6094698;23;20343;-83
2021/12/07 07:59:46;;;;;;;2.47;2.20;;;5.70;97.40;;;;;;6095472;23;19997;-84
2021/12/07 08:02:12;;;;;;;3.10;2.10;;;5.80;97.10;;;;;;6070644;23;20018;-84
2021/12/07 08:04:41;;;;;;;6.22;2.58;;;5.80;97.20;;;;;;6069238;23;20005;-83
2021/12/07 08:07:07;;;;;;;4.85;2.90;;;5.80;97.40;;;;;;6069258;23;20042;-83
2021/12/07 08:09:33;;;;;;;8.32;2.50;;;5.80;96.80;;;;;;6094273;23;20009;-83
2021/12/07 08:11:59;;;;;;;4.28;2.53;;;5.80;95.90;;;;;;6069112;23;20009;-83
2021/12/07 08:14:24;;;;;;;5.35;2.42;;;5.90;96.40;;;;;;6069223;23;20723;-82
2021/12/07 08:16:50;;;;;;;4.22;2.38;;;6.00;95.90;;;;;;6069487;23;20009;-84
2021/12/07 08:19:16;;;;;;;2.92;1.90;;;6.10;96.80;;;;;;6045100;23;20007;-82
2021/12/07 08:21:42;;;;;;;1.77;1.63;;;6.20;96.30;;;;;;6094942;23;20022;-83
2021/12/07 08:24:07;;;;;;;3.75;2.03;;;6.20;95.00;;;;;;6069620;23;20003;-84
2021/12/07 08:26:33;;;;;;;2.60;2.03;;;6.30;94.80;;;;;;6068952;23;20017;-83
2021/12/07 08:29:00;;;;;;;2.28;1.75;;;6.40;94.80;;;;;;6094040;23;19998;-83
2021/12/07 08:31:28;;;;;;;6.47;1.50;;;6.50;93.90;;;;;;6068748;23;20007;-85
2021/12/07 08:33:54;;;;;;;2.53;1.77;;;6.60;94.20;;;;;;6069788;23;20002;-84
2021/12/07 08:36:20;;;;;;;5.60;1.77;;;6.70;93.80;;;;;;6071271;23;20149;-85
2021/12/07 08:38:49;;;;;;;2.97;1.83;;;6.70;92.60;;;;;;6069613;23;20006;-83
2021/12/07 08:41:15;;;;;;;2.88;1.67;;;6.80;93.10;;;;;;6070242;23;20045;-88
2021/12/07 08:43:41;;;;;;;1.40;1.30;;;6.80;93.00;;;;;;6072304;23;20042;-87
2021/12/07 08:46:09;;;;;;;1.60;1.30;;;6.80;93.00;;;;;;6069715;23;20505;-86
2021/12/07 08:48:35;;;;;;;2.25;1.30;;;6.90;93.00;;;;;;6070224;23;20044;-87
2021/12/07 08:51:02;;;;;;;1.98;1.38;;;7.00;92.30;;;;;;6073809;23;20490;-89
2021/12/07 08:53:29;;;;;;;1.85;1.52;;;7.00;92.60;;;;;;6074707;23;20105;-89
2021/12/07 09:01:29;;;;;;;2.95;1.40;;;7.30;93.30;;;;;;6093589;23;20021;-91
2021/12/07 09:03:56;;;;;;;2.10;1.40;;;7.40;94.20;;;;;;6069903;23;20007;-90
2021/12/07 09:06:23;;;;;;;6.45;1.85;;;7.60;92.90;;;;;;6095835;23;20015;-92
2021/12/07 09:08:49;;;;;;;3.35;1.83;;;7.80;90.80;;;;;;6097839;23;20006;-89
2021/12/07 09:11:16;;;;;;;6.47;1.38;;;8.00;91.40;;;;;;6093031;23;20339;-89
2021/12/07 09:13:42;;;;;;;4.00;2.25;;;8.10;90.00;;;;;;6093798;23;20054;-86
2021/12/07 09:16:10;;;;;;;2.08;1.67;;;8.30;88.20;;;;;;6094321;23;20014;-87
2021/12/07 09:18:37;;;;;;;2.42;1.60;;;8.40;88.30;;;;;;6098206;23;20017;-92
2021/12/07 09:21:07;;;;;;;4.88;1.63;;;8.60;87.80;;;;;;6070752;23;20010;-91
2021/12/07 09:23:33;;;;;;;8.10;1.83;;;8.70;86.40;;;;;;6103172;23;20029;-93
2021/12/07 09:25:59;;;;;;;2.85;1.85;;;8.80;86.50;;;;;;6086614;23;20028;-93
2021/12/07 09:28:25;;;;;;;2.47;1.50;;;8.90;83.80;;;;;;6056304;23;20018;-86
2021/12/07 09:30:52;;;;;;;5.93;1.30;;;8.90;85.50;;;;;;6076339;23;20010;-87
2021/12/07 09:33:24;;;;;;;2.25;1.60;;;8.90;85.00;;;;;;6050813;23;20018;-89
2021/12/07 09:35:51;;;;;;;3.80;1.23;;;8.90;82.60;;;;;;6095635;23;20010;-88
2021/12/07 09:38:18;;;;;;;1.30;1.20;;;9.00;81.50;;;;;;6095523;23;20025;-89
2021/12/07 09:40:45;;;;;;;1.58;1.30;;;9.00;83.50;;;;;;6095638;23;20461;-88
2021/12/07 09:43:12;;;;;;;1.45;1.35;;;9.00;82.50;;;;;;6101564;23;20038;-88
2021/12/07 09:45:40;;;;;;;5.22;1.30;;;9.00;83.20;;;;;;6093508;23;20002;-87
2021/12/07 09:48:08;;;;;;;5.50;1.48;;;9.00;84.00;;;;;;6069085;23;20094;-80
2021/12/07 09:50:36;;;;;;;2.15;1.40;;;9.10;81.60;;;;;;6091893;23;20100;-88
2021/12/07 09:53:07;;;;;;;3.47;1.23;;;9.10;84.00;;;;;;6092132;23;20013;-80
2021/12/07 09:55:33;;;;;;;1.30;1.20;;;9.20;82.80;;;;;;6091547;23;20021;-80
2021/12/07 09:57:59;;;;;;;3.47;1.27;;;9.20;80.30;;;;;;6091900;23;20093;-80
2021/12/07 10:00:25;;;;;;;3.72;1.25;;;9.30;79.90;;;;;;6091294;23;20002;-80
2021/12/07 10:02:52;;;;;;;2.22;1.20;;;9.50;80.80;;;;;;6091553;23;20391;-78
2021/12/07 10:05:19;;;;;;;3.35;1.25;;;9.50;80.60;;;;;;6090942;23;20010;-79
2021/12/07 10:07:47;;;;;;;2.85;1.73;;;9.60;77.80;;;;;;6091821;23;19999;-82
2021/12/07 10:10:35;;;;;;;4.40;2.08;;;9.70;78.60;;;;;;6091552;23;20011;-81
2021/12/07 10:13:01;;;;;;;3.45;2.58;;;9.90;78.90;;;;;;6091258;23;20413;-84
2021/12/07 10:15:28;;;;;;;2.38;1.63;;;10.10;77.70;;;;;;6091454;23;20053;-82
2021/12/07 10:18:12;;;;;;;2.33;1.35;;;10.20;75.70;;;;;;6091255;23;20009;-79
2021/12/07 10:20:44;;;;;;;2.90;1.65;;;10.30;75.20;;;;;;6065605;23;20013;-78
2021/12/07 10:23:16;;;;;;;1.80;1.17;;;10.30;75.70;;;;;;6091695;23;20018;-79
2021/12/07 10:25:54;;;;;;;4.85;1.75;;;10.30;77.10;;;;;;6065841;23;20085;-78
2021/12/07 10:28:48;;;;;;;4.05;1.30;;;10.40;77.60;;;;;;6091187;23;20010;-79
2021/12/07 10:31:25;;;;;;;1.92;1.23;;;10.50;75.80;;;;;;6088708;23;20003;-80
2021/12/07 10:34:02;;;;;;;2.78;1.30;;;10.20;71.00;;;;;;6068812;23;20053;-79
2021/12/07 10:36:30;;;;;;;1.33;1.23;;;10.10;75.20;;;;;;6094707;23;20002;-79
2021/12/07 10:39:00;;;;;;;5.93;1.50;;;10.00;72.30;;;;;;6094298;23;20007;-80
2021/12/07 10:41:31;;;;;;;1.73;1.30;;;9.90;70.10;;;;;;6094740;23;20077;-81
2021/12/07 10:44:03;;;;;;;2.15;1.35;;;9.60;72.10;;;;;;6094790;23;20065;-81
2021/12/07 10:46:31;;;;;;;1.75;1.30;;;9.50;71.90;;;;;;6094124;23;20349;-79
2021/12/07 10:49:09;;;;;;;2.22;1.63;;;9.60;73.30;;;;;;6093903;23;20334;-79
2021/12/07 10:51:35;;;;;;;2.55;1.25;;;9.70;74.40;;;;;;6094575;23;19998;-80
2021/12/07 10:54:00;;;;;;;2.95;1.25;;;9.70;70.60;;;;;;6093950;23;20058;-79
2021/12/07 10:56:30;;;;;;;1.83;1.10;;;9.70;73.00;;;;;;6095230;23;20073;-79
2021/12/07 10:59:14;;;;;;;2.13;1.50;;;9.70;67.70;;;;;;6093959;23;20450;-79
2021/12/07 11:01:44;;;;;;;2.35;1.40;;;9.70;69.50;;;;;;6092928;23;20003;-79
2021/12/07 11:04:33;;;;;;;2.35;1.27;;;9.70;69.70;;;;;;6067058;23;20014;-78
2021/12/07 11:07:05;;;;;;;1.90;1.30;;;9.80;72.30;;;;;;6092760;23;20449;-79
2021/12/07 11:10:15;;;;;;;1.55;1.05;;;9.90;69.50;;;;;;6092872;23;20007;-78
2021/12/07 11:15:26;;;;;;;1.40;0.80;;;9.80;63.30;;;;;;6093349;23;20014;-79
2021/12/07 11:17:56;;;;;;;1.73;0.90;;;9.60;63.20;;;;;;6092846;23;19998;-78
2021/12/07 11:20:22;;;;;;;0.85;0.75;;;9.50;62.80;;;;;;6092691;23;20040;-79
2021/12/07 11:22:53;;;;;;;2.70;1.00;;;9.40;66.20;;;;;;6067014;23;20349;-79
2021/12/07 11:29:39;;;;;;;2.15;1.17;;;9.50;68.40;;;;;;6092497;23;20026;-79
2021/12/07 11:31:42;;;;;;;2.67;1.00;;;9.50;64.80;;;;;;6094989;23;20103;-79
2021/12/07 11:34:08;;;;;;;1.75;1.00;;;9.30;64.60;;;;;;6094089;23;19998;-79
2021/12/07 11:36:39;;;;;;;1.13;1.00;;;9.20;63.90;;;;;;6094911;23;20009;-79
2021/12/07 11:39:26;;;;;;;1.02;0.90;;;9.10;65.60;;;;;;6094373;23;20077;-79
2021/12/07 11:42:17;;;;;;;1.83;1.13;;;9.30;65.60;;;;;;6094235;23;20434;-80
2021/12/07 11:44:49;;;;;;;1.55;1.05;;;9.40;69.40;;;;;;6094206;23;20457;-80
2021/12/07 11:47:14;;;;;;;3.17;0.82;;;9.30;66.90;;;;;;6068962;23;20018;-80
2021/12/07 11:49:41;;;;;;;1.60;0.70;;;9.30;66.00;;;;;;6094383;23;20382;-80
2021/12/07 11:52:08;;;;;;;4.20;1.27;;;9.10;65.20;;;;;;6094837;23;20479;-80
2021/12/07 11:54:39;;;;;;;3.70;1.90;;;9.10;66.20;;;;;;6094536;23;20006;-79
2021/12/07 11:57:07;;;;;;;1.45;1.10;;;9.10;67.10;;;;;;6094289;23;20041;-79
2021/12/07 11:59:33;;;;;;;2.60;1.45;;;9.10;65.90;;;;;;6068922;23;20009;-80
2021/12/07 12:01:59;;;;;;;2.15;1.23;;;9.00;66.70;;;;;;6068948;23;20043;-79
2021/12/07 12:04:25;;;;;;;4.88;1.20;;;9.20;69.70;;;;;;6094357;23;20341;-79
2021/12/07 12:06:53;;;;;;;1.17;1.08;;;9.50;67.80;;;;;;6094597;23;19998;-78
2021/12/07 12:09:21;;;;;;;2.35;1.67;;;10.20;65.70;;;;;;6094453;23;20050;-80
2021/12/07 12:12:09;;;;;;;1.55;1.40;;;9.80;65.20;;;;;;6068875;23;20014;-79
2021/12/07 12:15:04;;;;;;;2.17;1.60;;;9.40;66.60;;;;;;6094434;23;19994;-77
2021/12/07 12:17:54;;;;;;;1.08;0.98;;;9.60;66.20;;;;;;6067979;23;20011;-77
2021/12/07 12:20:38;;;;;;;1.30;1.15;;;10.40;63.70;;;;;;6094167;23;19998;-80
2021/12/07 12:23:12;;;;;;;1.30;1.10;;;11.60;62.30;;;;;;6094567;23;20014;-80
2021/12/07 12:25:38;;;;;;;2.55;1.50;;;14.30;57.00;;;;;;6094502;23;20330;-80
2021/12/07 12:28:04;;;;;;;3.05;1.50;;;16.80;52.20;;;;;;6069002;23;20378;-78
2021/12/07 12:30:37;;;;;;;5.07;1.60;;;18.00;49.50;;;;;;6091092;23;20081;-82
2021/12/07 12:33:14;;;;;;;2.35;1.60;;;19.30;47.00;;;;;;6092697;23;20549;-79
2021/12/07 12:35:51;;;;;;;3.10;1.42;;;19.50;46.60;;;;;;6066691;23;20002;-80
2021/12/07 12:38:31;;;;;;;2.85;1.17;;;19.40;45.20;;;;;;6094327;23;20422;-77
2021/12/07 12:41:00;;;;;;;8.02;1.52;;;17.80;47.10;;;;;;6094227;23;20278;-78
2021/12/07 12:43:42;;;;;;;3.13;1.30;;;16.40;50.00;;;;;;6094064;23;20517;-79
2021/12/07 12:46:12;;;;;;;1.05;0.93;;;15.70;50.60;;;;;;6094468;23;20041;-78
2021/12/07 12:48:41;;;;;;;3.30;1.20;;;15.60;51.70;;;;;;6073826;23;20431;-77
2021/12/07 12:51:09;;;;;;;2.65;1.13;;;15.90;51.00;;;;;;6094883;23;20090;-78
2021/12/07 12:53:35;;;;;;;1.65;1.50;;;15.80;51.10;;;;;;6101500;23;20006;-80
2021/12/07 12:56:13;;;;;;;2.70;1.15;;;15.70;51.90;;;;;;6075468;23;20010;-81
2021/12/07 12:58:43;;;;;;;1.38;1.13;;;15.50;52.40;;;;;;6097875;23;20085;-79
2021/12/07 13:01:20;;;;;;;1.20;1.00;;;15.70;51.60;;;;;;6093993;23;20014;-78
2021/12/07 13:04:12;;;;;;;3.22;1.20;;;15.70;51.50;;;;;;6094138;23;20064;-79
2021/12/07 13:07:23;;;;;;;1.67;1.00;;;16.00;51.30;;;;;;6075640;23;20117;-79
2021/12/07 13:09:48;;;;;;;1.00;0.90;;;16.50;50.90;;;;;;6095935;23;20006;-79
2021/12/07 13:12:21;;;;;;;1.63;0.95;;;16.40;50.70;;;;;;6096246;23;20014;-78
2021/12/07 13:14:49;;;;;;;1.65;1.00;;;16.10;51.40;;;;;;6096304;23;20006;-78
2021/12/07 13:17:17;;;;;;;2.00;1.05;;;16.20;50.80;;;;;;6096051;23;20002;-78
2021/12/07 13:20:02;;;;;;;2.90;1.60;;;16.10;51.20;;;;;;6070328;23;20082;-80
2021/12/07 13:22:38;;;;;;;2.20;1.40;;;16.60;50.30;;;;;;6095970;23;20014;-80
2021/12/07 13:25:17;;;;;;;1.85;1.38;;;16.90;50.60;;;;;;6096173;23;20005;-78
2021/12/07 13:28:11;;;;;;;1.88;1.05;;;17.30;50.00;;;;;;6096025;23;20006;-79
2021/12/07 13:30:46;;;;;;;1.90;1.08;;;17.20;49.70;;;;;;6096116;23;20000;-79
2021/12/07 13:33:36;;;;;;;3.05;1.40;;;17.30;48.20;;;;;;6070396;23;20332;-79
2021/12/07 13:36:30;;;;;;;3.03;1.35;;;17.20;49.30;;;;;;6095808;23;20010;-79
2021/12/07 13:39:28;;;;;;;1.15;0.98;;;16.80;49.30;;;;;;6006910;23;20038;-80
2021/12/07 13:41:58;;;;;;;1.08;0.98;;;17.00;49.50;;;;;;6095558;23;20002;-80
2021/12/07 13:44:26;;;;;;;1.90;1.25;;;16.90;50.00;;;;;;6070197;23;20038;-78
2021/12/07 13:47:02;;;;;;;1.63;1.33;;;16.70;50.00;;;;;;6070100;23;20007;-78
2021/12/07 13:49:31;;;;;;;1.77;1.20;;;17.40;50.10;;;;;;6069772;23;20061;-78
2021/12/07 13:51:56;;;;;;;11.02;1.83;;;17.40;49.10;;;;;;6070199;23;20163;-78
2021/12/07 13:54:22;;;;;;;2.45;1.50;;;16.80;50.00;;;;;;6094194;23;20026;-77
2021/12/07 13:56:50;;;;;;;1.58;1.48;;;16.60;49.80;;;;;;6093099;23;20498;-80
2021/12/07 13:59:21;;;;;;;3.58;1.58;;;16.80;50.90;;;;;;6092338;23;19999;-79
2021/12/07 14:02:05;;;;;;;1.90;1.40;;;17.50;49.00;;;;;;6066740;23;20015;-78
2021/12/07 14:04:31;;;;;;;3.00;1.45;;;17.90;48.20;;;;;;6066915;23;20049;-78
2021/12/07 14:06:57;;;;;;;1.33;1.20;;;17.50;48.70;;;;;;6067011;23;20010;-79
2021/12/07 14:09:23;;;;;;;5.32;1.75;;;17.30;49.20;;;;;;6091798;23;20002;-77
2021/12/07 14:11:55;;;;;;;2.58;1.63;;;16.90;50.70;;;;;;6092385;23;20386;-78
2021/12/07 14:14:21;;;;;;;2.67;1.80;;;17.00;51.20;;;;;;6092257;23;20010;-79
2021/12/07 14:16:48;;;;;;;4.43;1.70;;;17.30;50.40;;;;;;6092236;23;20029;-79
2021/12/07 14:19:14;;;;;;;8.98;2.28;;;16.80;50.60;;;;;;6092029;23;20081;-78
2021/12/07 14:21:40;;;;;;;1.45;1.20;;;15.80;51.80;;;;;;6092081;23;20090;-78
2021/12/07 14:24:14;;;;;;;2.22;1.50;;;13.70;54.80;;;;;;6092096;23;20002;-80
2021/12/07 14:26:41;;;;;;;1.83;1.55;;;12.00;58.80;;;;;;6092500;23;20182;-80
2021/12/07 14:29:10;;;;;;;3.20;1.70;;;10.70;61.60;;;;;;6092046;23;20028;-79
2021/12/07 14:31:42;;;;;;;2.97;1.50;;;10.10;63.10;;;;;;6092613;23;20002;-80
2021/12/07 14:34:39;;;;;;;8.73;2.33;;;9.90;65.20;;;;;;6091716;23;20010;-78
2021/12/07 14:37:07;;;;;;;2.65;1.65;;;10.30;66.20;;;;;;6036858;23;20010;-78
2021/12/07 14:39:40;;;;;;;2.03;1.23;;;11.20;64.40;;;;;;6092330;23;20006;-79
2021/12/07 14:42:10;;;;;;;1.85;1.27;;;11.90;63.10;;;;;;6093757;23;20032;-80
2021/12/07 14:44:43;;;;;;;2.42;1.30;;;11.90;61.90;;;;;;6093933;23;20038;-81
2021/12/07 14:47:10;;;;;;;1.85;1.60;;;11.50;62.30;;;;;;6095961;23;20081;-80
2021/12/07 14:49:43;;;;;;;2.13;1.58;;;11.10;63.70;;;;;;6093225;23;20551;-81
2021/12/07 14:52:14;;;;;;;4.65;2.28;;;10.60;64.60;;;;;;6093101;23;20039;-79
2021/12/07 14:54:41;;;;;;;4.28;1.80;;;10.20;66.50;;;;;;6092417;23;20450;-79
2021/12/07 14:57:07;;;;;;;3.50;1.98;;;9.90;68.00;;;;;;6092459;23;20006;-79